sensor_id;sensor_type;location;lat;lon;timestamp;P1;durP1;ratioP1;P2;durP2;ratioP2
35693;SDS011;21812;55.536;37.664;2024-03-02T00:00:07;40.20;;;25.35;;
35693;SDS011;21812;55.536;37.664;2024-03-02T00:02:42;37.17;;;24.83;;
35693;SDS011;21812;55.536;37.664;2024-03-02T00:05:19;44.35;;;26.88;;
35693;SDS011;21812;55.536;37.664;2024-03-02T00:07:53;34.50;;;24.55;;
35693;SDS011;21812;55.536;37.664;2024-03-02T00:10:25;43.63;;;26.52;;
35693;SDS011;21812;55.536;37.664;2024-03-02T00:13:02;36.55;;;24.90;;
35693;SDS011;21812;55.536;37.664;2024-03-02T00:18:12;39.45;;;24.42;;
35693;SDS011;21812;55.536;37.664;2024-03-02T00:20:40;36.47;;;24.90;;
35693;SDS011;21812;55.536;37.664;2024-03-02T00:23:06;41.15;;;26.70;;
35693;SDS011;21812;55.536;37.664;2024-03-02T00:25:38;44.67;;;25.15;;
35693;SDS011;21812;55.536;37.664;2024-03-02T00:28:18;36.47;;;25.33;;
35693;SDS011;21812;55.536;37.664;2024-03-02T00:33:21;40.72;;;26.73;;
35693;SDS011;21812;55.536;37.664;2024-03-02T00:35:47;38.28;;;24.95;;
35693;SDS011;21812;55.536;37.664;2024-03-02T00:38:15;36.53;;;23.90;;
35693;SDS011;21812;55.536;37.664;2024-03-02T00:40:44;37.10;;;24.05;;
35693;SDS011;21812;55.536;37.664;2024-03-02T00:43:53;35.45;;;26.38;;
35693;SDS011;21812;55.536;37.664;2024-03-02T00:46:20;34.05;;;22.58;;
35693;SDS011;21812;55.536;37.664;2024-03-02T00:51:29;42.70;;;25.75;;
35693;SDS011;21812;55.536;37.664;2024-03-02T00:53:58;36.80;;;24.95;;
35693;SDS011;21812;55.536;37.664;2024-03-02T00:56:25;37.42;;;24.58;;
35693;SDS011;21812;55.536;37.664;2024-03-02T00:58:51;39.70;;;25.88;;
35693;SDS011;21812;55.536;37.664;2024-03-02T01:01:18;38.50;;;26.00;;
35693;SDS011;21812;55.536;37.664;2024-03-02T01:03:45;45.05;;;27.88;;
35693;SDS011;21812;55.536;37.664;2024-03-02T01:06:11;39.03;;;23.92;;
35693;SDS011;21812;55.536;37.664;2024-03-02T01:08:37;46.78;;;29.35;;
35693;SDS011;21812;55.536;37.664;2024-03-02T01:11:03;50.75;;;31.08;;
35693;SDS011;21812;55.536;37.664;2024-03-02T01:13:30;53.10;;;32.72;;
35693;SDS011;21812;55.536;37.664;2024-03-02T01:15:57;49.88;;;30.67;;
35693;SDS011;21812;55.536;37.664;2024-03-02T01:18:22;56.53;;;33.47;;
35693;SDS011;21812;55.536;37.664;2024-03-02T01:20:49;52.22;;;31.58;;
35693;SDS011;21812;55.536;37.664;2024-03-02T01:23:20;55.38;;;34.30;;
35693;SDS011;21812;55.536;37.664;2024-03-02T01:25:46;50.20;;;30.90;;
35693;SDS011;21812;55.536;37.664;2024-03-02T01:28:13;52.97;;;33.53;;
35693;SDS011;21812;55.536;37.664;2024-03-02T01:30:39;59.53;;;33.80;;
35693;SDS011;21812;55.536;37.664;2024-03-02T01:33:05;51.47;;;33.08;;
35693;SDS011;21812;55.536;37.664;2024-03-02T01:35:31;49.58;;;31.92;;
35693;SDS011;21812;55.536;37.664;2024-03-02T01:37:57;49.67;;;31.85;;
35693;SDS011;21812;55.536;37.664;2024-03-02T01:40:23;51.38;;;32.83;;
35693;SDS011;21812;55.536;37.664;2024-03-02T01:42:52;47.65;;;31.92;;
35693;SDS011;21812;55.536;37.664;2024-03-02T01:45:19;47.50;;;31.88;;
35693;SDS011;21812;55.536;37.664;2024-03-02T01:47:45;46.33;;;28.95;;
35693;SDS011;21812;55.536;37.664;2024-03-02T01:50:10;50.78;;;31.10;;
35693;SDS011;21812;55.536;37.664;2024-03-02T01:52:37;49.92;;;31.50;;
35693;SDS011;21812;55.536;37.664;2024-03-02T01:55:03;50.38;;;32.40;;
35693;SDS011;21812;55.536;37.664;2024-03-02T01:57:29;48.85;;;31.15;;
35693;SDS011;21812;55.536;37.664;2024-03-02T01:59:55;48.03;;;30.17;;
35693;SDS011;21812;55.536;37.664;2024-03-02T02:02:21;44.45;;;30.23;;
35693;SDS011;21812;55.536;37.664;2024-03-02T02:04:47;47.83;;;30.23;;
35693;SDS011;21812;55.536;37.664;2024-03-02T02:07:12;47.75;;;29.35;;
35693;SDS011;21812;55.536;37.664;2024-03-02T02:09:42;44.55;;;30.45;;
35693;SDS011;21812;55.536;37.664;2024-03-02T02:12:11;43.65;;;28.42;;
35693;SDS011;21812;55.536;37.664;2024-03-02T02:14:37;44.40;;;29.63;;
35693;SDS011;21812;55.536;37.664;2024-03-02T02:17:05;42.67;;;28.77;;
35693;SDS011;21812;55.536;37.664;2024-03-02T02:19:31;45.45;;;29.35;;
35693;SDS011;21812;55.536;37.664;2024-03-02T02:21:56;50.92;;;29.70;;
35693;SDS011;21812;55.536;37.664;2024-03-02T02:24:22;40.95;;;27.35;;
35693;SDS011;21812;55.536;37.664;2024-03-02T02:26:48;47.53;;;29.73;;
35693;SDS011;21812;55.536;37.664;2024-03-02T02:29:14;43.47;;;28.35;;
35693;SDS011;21812;55.536;37.664;2024-03-02T02:31:39;45.63;;;27.83;;
35693;SDS011;21812;55.536;37.664;2024-03-02T02:34:06;43.60;;;28.25;;
35693;SDS011;21812;55.536;37.664;2024-03-02T02:36:34;41.08;;;27.10;;
35693;SDS011;21812;55.536;37.664;2024-03-02T02:39:03;41.28;;;27.73;;
35693;SDS011;21812;55.536;37.664;2024-03-02T02:41:32;40.88;;;27.30;;
35693;SDS011;21812;55.536;37.664;2024-03-02T02:43:57;48.13;;;29.25;;
35693;SDS011;21812;55.536;37.664;2024-03-02T02:46:23;42.92;;;28.30;;
35693;SDS011;21812;55.536;37.664;2024-03-02T02:48:49;42.00;;;26.67;;
35693;SDS011;21812;55.536;37.664;2024-03-02T02:51:16;45.47;;;27.67;;
35693;SDS011;21812;55.536;37.664;2024-03-02T02:53:43;44.95;;;27.88;;
35693;SDS011;21812;55.536;37.664;2024-03-02T02:56:09;43.50;;;28.83;;
35693;SDS011;21812;55.536;37.664;2024-03-02T02:58:34;44.58;;;28.35;;
35693;SDS011;21812;55.536;37.664;2024-03-02T03:01:01;47.40;;;27.98;;
35693;SDS011;21812;55.536;37.664;2024-03-02T03:03:27;43.45;;;27.42;;
35693;SDS011;21812;55.536;37.664;2024-03-02T03:05:52;35.67;;;22.95;;
35693;SDS011;21812;55.536;37.664;2024-03-02T03:08:18;22.48;;;13.98;;
35693;SDS011;21812;55.536;37.664;2024-03-02T03:10:44;38.80;;;23.20;;
35693;SDS011;21812;55.536;37.664;2024-03-02T03:13:10;43.38;;;27.67;;
35693;SDS011;21812;55.536;37.664;2024-03-02T03:15:36;38.92;;;25.75;;
35693;SDS011;21812;55.536;37.664;2024-03-02T03:18:04;42.40;;;26.52;;
35693;SDS011;21812;55.536;37.664;2024-03-02T03:20:30;41.97;;;26.17;;
35693;SDS011;21812;55.536;37.664;2024-03-02T03:22:56;43.97;;;26.13;;
35693;SDS011;21812;55.536;37.664;2024-03-02T03:25:23;39.03;;;23.52;;
35693;SDS011;21812;55.536;37.664;2024-03-02T03:27:48;31.27;;;22.23;;
35693;SDS011;21812;55.536;37.664;2024-03-02T03:30:14;38.58;;;25.00;;
35693;SDS011;21812;55.536;37.664;2024-03-02T03:32:40;39.58;;;24.92;;
35693;SDS011;21812;55.536;37.664;2024-03-02T03:35:06;38.70;;;24.80;;
35693;SDS011;21812;55.536;37.664;2024-03-02T03:37:32;43.92;;;25.77;;
35693;SDS011;21812;55.536;37.664;2024-03-02T03:39:59;39.53;;;25.23;;
35693;SDS011;21812;55.536;37.664;2024-03-02T03:42:25;37.58;;;24.75;;
35693;SDS011;21812;55.536;37.664;2024-03-02T03:44:51;41.75;;;26.52;;
35693;SDS011;21812;55.536;37.664;2024-03-02T03:47:17;39.17;;;24.02;;
35693;SDS011;21812;55.536;37.664;2024-03-02T03:49:42;39.95;;;24.92;;
35693;SDS011;21812;55.536;37.664;2024-03-02T03:52:08;35.10;;;24.85;;
35693;SDS011;21812;55.536;37.664;2024-03-02T03:54:34;31.67;;;21.02;;
35693;SDS011;21812;55.536;37.664;2024-03-02T03:56:59;32.38;;;22.52;;
35693;SDS011;21812;55.536;37.664;2024-03-02T03:59:25;36.80;;;24.10;;
35693;SDS011;21812;55.536;37.664;2024-03-02T04:01:51;41.83;;;25.58;;
35693;SDS011;21812;55.536;37.664;2024-03-02T04:04:17;41.92;;;25.52;;
35693;SDS011;21812;55.536;37.664;2024-03-02T04:06:42;38.08;;;25.92;;
35693;SDS011;21812;55.536;37.664;2024-03-02T04:09:08;41.30;;;25.40;;
35693;SDS011;21812;55.536;37.664;2024-03-02T04:11:34;42.42;;;26.70;;
35693;SDS011;21812;55.536;37.664;2024-03-02T04:13:59;38.35;;;25.15;;
35693;SDS011;21812;55.536;37.664;2024-03-02T04:16:26;33.58;;;23.90;;
35693;SDS011;21812;55.536;37.664;2024-03-02T04:18:52;42.05;;;25.58;;
35693;SDS011;21812;55.536;37.664;2024-03-02T04:21:17;38.83;;;25.02;;
35693;SDS011;21812;55.536;37.664;2024-03-02T04:23:43;40.53;;;24.48;;
35693;SDS011;21812;55.536;37.664;2024-03-02T04:26:08;39.03;;;27.27;;
35693;SDS011;21812;55.536;37.664;2024-03-02T04:28:34;40.15;;;25.00;;
35693;SDS011;21812;55.536;37.664;2024-03-02T04:31:00;39.35;;;25.83;;
35693;SDS011;21812;55.536;37.664;2024-03-02T04:33:26;39.45;;;26.50;;
35693;SDS011;21812;55.536;37.664;2024-03-02T04:35:51;40.67;;;26.23;;
35693;SDS011;21812;55.536;37.664;2024-03-02T04:38:17;41.65;;;27.05;;
35693;SDS011;21812;55.536;37.664;2024-03-02T04:40:43;37.97;;;25.38;;
35693;SDS011;21812;55.536;37.664;2024-03-02T04:43:08;36.50;;;24.10;;
35693;SDS011;21812;55.536;37.664;2024-03-02T04:45:37;38.45;;;25.30;;
35693;SDS011;21812;55.536;37.664;2024-03-02T04:48:03;35.90;;;24.23;;
35693;SDS011;21812;55.536;37.664;2024-03-02T04:50:29;41.70;;;24.40;;
35693;SDS011;21812;55.536;37.664;2024-03-02T04:52:55;39.60;;;25.17;;
35693;SDS011;21812;55.536;37.664;2024-03-02T04:55:20;42.38;;;26.52;;
35693;SDS011;21812;55.536;37.664;2024-03-02T04:57:52;39.95;;;25.63;;
35693;SDS011;21812;55.536;37.664;2024-03-02T05:00:20;39.85;;;26.65;;
35693;SDS011;21812;55.536;37.664;2024-03-02T05:02:46;37.95;;;26.77;;
35693;SDS011;21812;55.536;37.664;2024-03-02T05:05:12;40.22;;;25.50;;
35693;SDS011;21812;55.536;37.664;2024-03-02T05:07:38;40.15;;;24.80;;
35693;SDS011;21812;55.536;37.664;2024-03-02T05:10:03;39.92;;;24.45;;
35693;SDS011;21812;55.536;37.664;2024-03-02T05:12:29;38.10;;;26.30;;
35693;SDS011;21812;55.536;37.664;2024-03-02T05:15:01;38.25;;;24.70;;
35693;SDS011;21812;55.536;37.664;2024-03-02T05:17:29;42.50;;;25.90;;
35693;SDS011;21812;55.536;37.664;2024-03-02T05:19:55;35.72;;;22.95;;
35693;SDS011;21812;55.536;37.664;2024-03-02T05:22:21;39.83;;;26.60;;
35693;SDS011;21812;55.536;37.664;2024-03-02T05:24:46;57.53;;;28.33;;
35693;SDS011;21812;55.536;37.664;2024-03-02T05:27:12;50.97;;;27.95;;
35693;SDS011;21812;55.536;37.664;2024-03-02T05:29:38;21.35;;;16.27;;
35693;SDS011;21812;55.536;37.664;2024-03-02T05:32:03;56.65;;;30.98;;
35693;SDS011;21812;55.536;37.664;2024-03-02T05:34:29;56.47;;;30.35;;
35693;SDS011;21812;55.536;37.664;2024-03-02T05:36:56;52.42;;;33.03;;
35693;SDS011;21812;55.536;37.664;2024-03-02T05:39:23;58.30;;;30.52;;
35693;SDS011;21812;55.536;37.664;2024-03-02T05:41:48;28.85;;;17.30;;
35693;SDS011;21812;55.536;37.664;2024-03-02T05:44:14;52.30;;;29.67;;
35693;SDS011;21812;55.536;37.664;2024-03-02T05:46:41;50.08;;;32.00;;
35693;SDS011;21812;55.536;37.664;2024-03-02T05:49:08;48.03;;;28.20;;
35693;SDS011;21812;55.536;37.664;2024-03-02T05:51:35;51.58;;;29.17;;
35693;SDS011;21812;55.536;37.664;2024-03-02T05:54:01;33.45;;;22.73;;
35693;SDS011;21812;55.536;37.664;2024-03-02T05:56:27;64.28;;;32.60;;
35693;SDS011;21812;55.536;37.664;2024-03-02T05:58:52;48.70;;;28.23;;
35693;SDS011;21812;55.536;37.664;2024-03-02T06:01:37;40.97;;;25.30;;
35693;SDS011;21812;55.536;37.664;2024-03-02T06:04:02;51.17;;;31.33;;
35693;SDS011;21812;55.536;37.664;2024-03-02T06:06:28;38.90;;;21.08;;
35693;SDS011;21812;55.536;37.664;2024-03-02T06:08:54;35.40;;;17.88;;
35693;SDS011;21812;55.536;37.664;2024-03-02T06:11:20;54.67;;;31.77;;
35693;SDS011;21812;55.536;37.664;2024-03-02T06:13:46;39.10;;;22.23;;
35693;SDS011;21812;55.536;37.664;2024-03-02T06:16:11;48.75;;;25.80;;
35693;SDS011;21812;55.536;37.664;2024-03-02T06:18:37;52.30;;;28.17;;
35693;SDS011;21812;55.536;37.664;2024-03-02T06:21:03;42.00;;;23.23;;
35693;SDS011;21812;55.536;37.664;2024-03-02T06:23:29;45.17;;;23.85;;
35693;SDS011;21812;55.536;37.664;2024-03-02T06:25:55;45.17;;;28.40;;
35693;SDS011;21812;55.536;37.664;2024-03-02T06:28:20;46.13;;;27.75;;
35693;SDS011;21812;55.536;37.664;2024-03-02T06:30:46;56.17;;;28.17;;
35693;SDS011;21812;55.536;37.664;2024-03-02T06:33:12;48.55;;;28.65;;
35693;SDS011;21812;55.536;37.664;2024-03-02T06:35:38;49.72;;;29.38;;
35693;SDS011;21812;55.536;37.664;2024-03-02T06:38:04;46.97;;;29.70;;
35693;SDS011;21812;55.536;37.664;2024-03-02T06:40:30;38.97;;;23.65;;
35693;SDS011;21812;55.536;37.664;2024-03-02T06:42:56;33.53;;;20.52;;
35693;SDS011;21812;55.536;37.664;2024-03-02T06:45:21;46.45;;;27.85;;
35693;SDS011;21812;55.536;37.664;2024-03-02T06:47:47;49.72;;;32.10;;
35693;SDS011;21812;55.536;37.664;2024-03-02T06:50:13;46.95;;;30.13;;
35693;SDS011;21812;55.536;37.664;2024-03-02T06:52:38;42.17;;;24.30;;
35693;SDS011;21812;55.536;37.664;2024-03-02T06:55:04;49.00;;;22.95;;
35693;SDS011;21812;55.536;37.664;2024-03-02T06:57:30;33.22;;;20.15;;
35693;SDS011;21812;55.536;37.664;2024-03-02T06:59:56;39.13;;;22.13;;
35693;SDS011;21812;55.536;37.664;2024-03-02T07:02:24;28.73;;;16.95;;
35693;SDS011;21812;55.536;37.664;2024-03-02T07:04:55;38.13;;;24.95;;
35693;SDS011;21812;55.536;37.664;2024-03-02T07:07:21;42.42;;;27.00;;
35693;SDS011;21812;55.536;37.664;2024-03-02T07:09:46;44.25;;;27.48;;
35693;SDS011;21812;55.536;37.664;2024-03-02T07:12:13;32.55;;;15.93;;
35693;SDS011;21812;55.536;37.664;2024-03-02T07:14:39;31.52;;;16.30;;
35693;SDS011;21812;55.536;37.664;2024-03-02T07:17:23;34.97;;;21.70;;
35693;SDS011;21812;55.536;37.664;2024-03-02T07:19:50;35.17;;;21.58;;
35693;SDS011;21812;55.536;37.664;2024-03-02T07:22:16;36.03;;;21.77;;
35693;SDS011;21812;55.536;37.664;2024-03-02T07:24:42;46.38;;;22.50;;
35693;SDS011;21812;55.536;37.664;2024-03-02T07:27:11;40.67;;;25.63;;
35693;SDS011;21812;55.536;37.664;2024-03-02T07:29:38;27.60;;;15.35;;
35693;SDS011;21812;55.536;37.664;2024-03-02T07:32:06;28.02;;;17.05;;
35693;SDS011;21812;55.536;37.664;2024-03-02T07:34:33;45.88;;;25.58;;
35693;SDS011;21812;55.536;37.664;2024-03-02T07:36:59;37.92;;;23.95;;
35693;SDS011;21812;55.536;37.664;2024-03-02T07:39:25;45.22;;;28.83;;
35693;SDS011;21812;55.536;37.664;2024-03-02T07:41:51;36.40;;;23.70;;
35693;SDS011;21812;55.536;37.664;2024-03-02T07:44:16;24.02;;;15.48;;
35693;SDS011;21812;55.536;37.664;2024-03-02T07:46:45;34.03;;;20.65;;
35693;SDS011;21812;55.536;37.664;2024-03-02T07:49:12;46.35;;;29.58;;
35693;SDS011;21812;55.536;37.664;2024-03-02T07:51:39;34.50;;;16.77;;
35693;SDS011;21812;55.536;37.664;2024-03-02T07:54:05;44.47;;;30.00;;
35693;SDS011;21812;55.536;37.664;2024-03-02T07:56:31;50.33;;;30.80;;
35693;SDS011;21812;55.536;37.664;2024-03-02T07:58:57;46.67;;;29.08;;
35693;SDS011;21812;55.536;37.664;2024-03-02T08:01:27;40.08;;;24.70;;
35693;SDS011;21812;55.536;37.664;2024-03-02T08:03:54;49.15;;;32.22;;
35693;SDS011;21812;55.536;37.664;2024-03-02T08:06:22;51.38;;;32.33;;
35693;SDS011;21812;55.536;37.664;2024-03-02T08:08:48;52.70;;;34.55;;
35693;SDS011;21812;55.536;37.664;2024-03-02T08:11:13;53.13;;;35.17;;
35693;SDS011;21812;55.536;37.664;2024-03-02T08:13:39;55.72;;;34.88;;
35693;SDS011;21812;55.536;37.664;2024-03-02T08:16:05;54.83;;;31.77;;
35693;SDS011;21812;55.536;37.664;2024-03-02T08:18:34;53.97;;;33.58;;
35693;SDS011;21812;55.536;37.664;2024-03-02T08:21:00;48.72;;;31.45;;
35693;SDS011;21812;55.536;37.664;2024-03-02T08:23:26;52.72;;;30.75;;
35693;SDS011;21812;55.536;37.664;2024-03-02T08:25:51;51.75;;;30.60;;
35693;SDS011;21812;55.536;37.664;2024-03-02T08:28:17;44.75;;;28.77;;
35693;SDS011;21812;55.536;37.664;2024-03-02T08:30:43;50.63;;;29.55;;
35693;SDS011;21812;55.536;37.664;2024-03-02T08:33:08;49.33;;;31.13;;
35693;SDS011;21812;55.536;37.664;2024-03-02T08:35:34;53.33;;;30.13;;
35693;SDS011;21812;55.536;37.664;2024-03-02T08:38:03;53.70;;;33.03;;
35693;SDS011;21812;55.536;37.664;2024-03-02T08:40:30;53.10;;;31.00;;
35693;SDS011;21812;55.536;37.664;2024-03-02T08:42:55;58.63;;;32.00;;
35693;SDS011;21812;55.536;37.664;2024-03-02T08:45:21;51.40;;;30.30;;
35693;SDS011;21812;55.536;37.664;2024-03-02T08:47:47;52.13;;;32.05;;
35693;SDS011;21812;55.536;37.664;2024-03-02T08:50:13;49.65;;;31.15;;
35693;SDS011;21812;55.536;37.664;2024-03-02T08:52:39;54.85;;;31.70;;
35693;SDS011;21812;55.536;37.664;2024-03-02T08:55:06;52.90;;;32.70;;
35693;SDS011;21812;55.536;37.664;2024-03-02T08:57:33;50.92;;;32.22;;
35693;SDS011;21812;55.536;37.664;2024-03-02T08:59:59;51.90;;;29.85;;
35693;SDS011;21812;55.536;37.664;2024-03-02T09:02:25;52.83;;;34.25;;
35693;SDS011;21812;55.536;37.664;2024-03-02T09:04:51;48.67;;;30.77;;
35693;SDS011;21812;55.536;37.664;2024-03-02T09:07:17;48.03;;;29.33;;
35693;SDS011;21812;55.536;37.664;2024-03-02T09:09:43;50.95;;;29.60;;
35693;SDS011;21812;55.536;37.664;2024-03-02T09:12:09;49.00;;;30.55;;
35693;SDS011;21812;55.536;37.664;2024-03-02T09:14:36;43.53;;;27.15;;
35693;SDS011;21812;55.536;37.664;2024-03-02T09:17:02;45.67;;;26.55;;
35693;SDS011;21812;55.536;37.664;2024-03-02T09:19:29;44.13;;;26.77;;
35693;SDS011;21812;55.536;37.664;2024-03-02T09:21:54;43.15;;;26.58;;
35693;SDS011;21812;55.536;37.664;2024-03-02T09:24:21;41.08;;;24.15;;
35693;SDS011;21812;55.536;37.664;2024-03-02T09:26:47;51.53;;;27.33;;
35693;SDS011;21812;55.536;37.664;2024-03-02T09:29:13;39.90;;;25.35;;
35693;SDS011;21812;55.536;37.664;2024-03-02T09:31:42;43.58;;;25.27;;
35693;SDS011;21812;55.536;37.664;2024-03-02T09:34:08;43.58;;;26.25;;
35693;SDS011;21812;55.536;37.664;2024-03-02T09:36:34;38.47;;;23.92;;
35693;SDS011;21812;55.536;37.664;2024-03-02T09:39:00;39.55;;;25.30;;
35693;SDS011;21812;55.536;37.664;2024-03-02T09:41:25;45.38;;;25.88;;
35693;SDS011;21812;55.536;37.664;2024-03-02T09:43:51;47.08;;;27.92;;
35693;SDS011;21812;55.536;37.664;2024-03-02T09:46:18;45.20;;;27.00;;
35693;SDS011;21812;55.536;37.664;2024-03-02T09:48:44;40.60;;;25.85;;
35693;SDS011;21812;55.536;37.664;2024-03-02T09:51:10;39.83;;;24.15;;
35693;SDS011;21812;55.536;37.664;2024-03-02T09:53:37;52.53;;;27.02;;
35693;SDS011;21812;55.536;37.664;2024-03-02T09:56:03;42.70;;;24.88;;
35693;SDS011;21812;55.536;37.664;2024-03-02T09:58:30;44.50;;;25.88;;
35693;SDS011;21812;55.536;37.664;2024-03-02T10:00:56;41.50;;;24.98;;
35693;SDS011;21812;55.536;37.664;2024-03-02T10:03:24;44.28;;;26.10;;
35693;SDS011;21812;55.536;37.664;2024-03-02T10:05:52;40.78;;;25.90;;
35693;SDS011;21812;55.536;37.664;2024-03-02T10:08:18;40.00;;;25.00;;
35693;SDS011;21812;55.536;37.664;2024-03-02T10:10:43;39.75;;;25.65;;
35693;SDS011;21812;55.536;37.664;2024-03-02T10:13:10;43.75;;;25.40;;
35693;SDS011;21812;55.536;37.664;2024-03-02T10:15:37;46.72;;;29.98;;
35693;SDS011;21812;55.536;37.664;2024-03-02T10:18:09;49.05;;;31.13;;
35693;SDS011;21812;55.536;37.664;2024-03-02T10:20:38;48.55;;;30.23;;
35693;SDS011;21812;55.536;37.664;2024-03-02T10:23:12;52.83;;;30.73;;
35693;SDS011;21812;55.536;37.664;2024-03-02T10:25:41;48.53;;;29.10;;
35693;SDS011;21812;55.536;37.664;2024-03-02T10:28:08;52.72;;;32.75;;
35693;SDS011;21812;55.536;37.664;2024-03-02T10:30:34;47.95;;;30.38;;
35693;SDS011;21812;55.536;37.664;2024-03-02T10:33:03;54.50;;;32.53;;
35693;SDS011;21812;55.536;37.664;2024-03-02T10:35:31;54.65;;;32.78;;
35693;SDS011;21812;55.536;37.664;2024-03-02T10:38:02;46.85;;;32.13;;
35693;SDS011;21812;55.536;37.664;2024-03-02T10:40:29;48.47;;;31.60;;
35693;SDS011;21812;55.536;37.664;2024-03-02T10:42:55;51.00;;;32.83;;
35693;SDS011;21812;55.536;37.664;2024-03-02T10:45:21;50.22;;;32.53;;
35693;SDS011;21812;55.536;37.664;2024-03-02T10:47:49;52.33;;;32.65;;
35693;SDS011;21812;55.536;37.664;2024-03-02T10:50:15;44.95;;;30.80;;
35693;SDS011;21812;55.536;37.664;2024-03-02T10:52:40;50.85;;;31.88;;
35693;SDS011;21812;55.536;37.664;2024-03-02T10:55:08;49.40;;;33.55;;
35693;SDS011;21812;55.536;37.664;2024-03-02T10:57:42;41.88;;;27.83;;
35693;SDS011;21812;55.536;37.664;2024-03-02T11:00:15;40.55;;;26.63;;
35693;SDS011;21812;55.536;37.664;2024-03-02T11:02:42;42.65;;;25.52;;
35693;SDS011;21812;55.536;37.664;2024-03-02T11:05:14;39.47;;;22.27;;
35693;SDS011;21812;55.536;37.664;2024-03-02T11:07:52;31.15;;;19.90;;
35693;SDS011;21812;55.536;37.664;2024-03-02T11:10:22;29.75;;;19.98;;
35693;SDS011;21812;55.536;37.664;2024-03-02T11:12:52;32.97;;;20.55;;
35693;SDS011;21812;55.536;37.664;2024-03-02T11:15:21;28.17;;;21.63;;
35693;SDS011;21812;55.536;37.664;2024-03-02T11:17:51;30.00;;;20.10;;
35693;SDS011;21812;55.536;37.664;2024-03-02T11:20:18;26.92;;;19.20;;
35693;SDS011;21812;55.536;37.664;2024-03-02T11:22:45;33.92;;;22.65;;
35693;SDS011;21812;55.536;37.664;2024-03-02T11:25:24;31.48;;;22.48;;
35693;SDS011;21812;55.536;37.664;2024-03-02T11:32:57;31.30;;;20.73;;
35693;SDS011;21812;55.536;37.664;2024-03-02T11:35:42;34.75;;;22.02;;
35693;SDS011;21812;55.536;37.664;2024-03-02T11:38:13;32.08;;;20.67;;
35693;SDS011;21812;55.536;37.664;2024-03-02T11:40:39;27.42;;;20.75;;
35693;SDS011;21812;55.536;37.664;2024-03-02T11:43:06;32.53;;;21.20;;
35693;SDS011;21812;55.536;37.664;2024-03-02T11:45:33;31.25;;;22.05;;
35693;SDS011;21812;55.536;37.664;2024-03-02T11:47:59;35.10;;;20.85;;
35693;SDS011;21812;55.536;37.664;2024-03-02T11:50:28;29.42;;;19.42;;
35693;SDS011;21812;55.536;37.664;2024-03-02T11:53:05;28.00;;;18.85;;
35693;SDS011;21812;55.536;37.664;2024-03-02T11:55:36;25.50;;;17.40;;
35693;SDS011;21812;55.536;37.664;2024-03-02T11:58:03;29.05;;;18.33;;
35693;SDS011;21812;55.536;37.664;2024-03-02T12:00:29;24.27;;;18.45;;
35693;SDS011;21812;55.536;37.664;2024-03-02T12:03:01;25.02;;;18.10;;
35693;SDS011;21812;55.536;37.664;2024-03-02T12:05:31;34.20;;;21.75;;
35693;SDS011;21812;55.536;37.664;2024-03-02T12:07:57;37.45;;;23.70;;
35693;SDS011;21812;55.536;37.664;2024-03-02T12:10:25;40.78;;;23.65;;
35693;SDS011;21812;55.536;37.664;2024-03-02T12:13:01;44.03;;;23.15;;
35693;SDS011;21812;55.536;37.664;2024-03-02T12:15:33;36.08;;;23.48;;
35693;SDS011;21812;55.536;37.664;2024-03-02T12:18:02;33.90;;;21.38;;
35693;SDS011;21812;55.536;37.664;2024-03-02T12:20:29;35.05;;;21.73;;
35693;SDS011;21812;55.536;37.664;2024-03-02T12:22:57;36.50;;;22.42;;
35693;SDS011;21812;55.536;37.664;2024-03-02T12:25:24;30.67;;;21.70;;
35693;SDS011;21812;55.536;37.664;2024-03-02T12:27:52;38.53;;;21.73;;
35693;SDS011;21812;55.536;37.664;2024-03-02T12:30:20;27.45;;;20.17;;
35693;SDS011;21812;55.536;37.664;2024-03-02T12:32:46;32.85;;;22.23;;
35693;SDS011;21812;55.536;37.664;2024-03-02T12:35:13;28.10;;;20.08;;
35693;SDS011;21812;55.536;37.664;2024-03-02T12:37:43;30.65;;;20.45;;
35693;SDS011;21812;55.536;37.664;2024-03-02T12:40:09;30.85;;;19.10;;
35693;SDS011;21812;55.536;37.664;2024-03-02T12:42:36;27.17;;;19.55;;
35693;SDS011;21812;55.536;37.664;2024-03-02T12:45:02;31.50;;;19.88;;
35693;SDS011;21812;55.536;37.664;2024-03-02T12:47:29;29.10;;;19.33;;
35693;SDS011;21812;55.536;37.664;2024-03-02T12:49:55;24.52;;;18.88;;
35693;SDS011;21812;55.536;37.664;2024-03-02T12:52:21;28.98;;;19.13;;
35693;SDS011;21812;55.536;37.664;2024-03-02T12:54:49;31.17;;;19.98;;
35693;SDS011;21812;55.536;37.664;2024-03-02T12:57:18;30.73;;;20.15;;
35693;SDS011;21812;55.536;37.664;2024-03-02T12:59:47;27.45;;;19.52;;
35693;SDS011;21812;55.536;37.664;2024-03-02T13:02:19;29.88;;;19.70;;
35693;SDS011;21812;55.536;37.664;2024-03-02T13:04:52;30.13;;;19.60;;
35693;SDS011;21812;55.536;37.664;2024-03-02T13:07:19;31.67;;;21.25;;
35693;SDS011;21812;55.536;37.664;2024-03-02T13:09:46;32.28;;;20.95;;
35693;SDS011;21812;55.536;37.664;2024-03-02T13:12:12;32.05;;;19.38;;
35693;SDS011;21812;55.536;37.664;2024-03-02T13:14:41;32.72;;;20.50;;
35693;SDS011;21812;55.536;37.664;2024-03-02T13:17:10;26.02;;;18.48;;
35693;SDS011;21812;55.536;37.664;2024-03-02T13:19:35;33.80;;;19.73;;
35693;SDS011;21812;55.536;37.664;2024-03-02T13:22:01;31.35;;;17.85;;
35693;SDS011;21812;55.536;37.664;2024-03-02T13:24:31;34.80;;;17.48;;
35693;SDS011;21812;55.536;37.664;2024-03-02T13:26:56;27.02;;;16.02;;
35693;SDS011;21812;55.536;37.664;2024-03-02T13:29:23;28.70;;;18.10;;
35693;SDS011;21812;55.536;37.664;2024-03-02T13:31:50;30.15;;;17.58;;
35693;SDS011;21812;55.536;37.664;2024-03-02T13:34:16;27.60;;;17.40;;
35693;SDS011;21812;55.536;37.664;2024-03-02T13:36:42;28.67;;;17.38;;
35693;SDS011;21812;55.536;37.664;2024-03-02T13:39:08;26.70;;;16.95;;
35693;SDS011;21812;55.536;37.664;2024-03-02T13:41:40;23.83;;;14.50;;
35693;SDS011;21812;55.536;37.664;2024-03-02T13:44:06;28.85;;;15.70;;
35693;SDS011;21812;55.536;37.664;2024-03-02T13:46:32;27.52;;;15.98;;
35693;SDS011;21812;55.536;37.664;2024-03-02T13:48:57;27.45;;;15.88;;
35693;SDS011;21812;55.536;37.664;2024-03-02T13:51:24;27.85;;;15.80;;
35693;SDS011;21812;55.536;37.664;2024-03-02T13:53:50;24.80;;;14.68;;
35693;SDS011;21812;55.536;37.664;2024-03-02T13:56:16;26.25;;;14.63;;
35693;SDS011;21812;55.536;37.664;2024-03-02T13:58:42;26.27;;;15.02;;
35693;SDS011;21812;55.536;37.664;2024-03-02T14:01:09;24.77;;;14.32;;
35693;SDS011;21812;55.536;37.664;2024-03-02T14:03:34;30.30;;;14.10;;
35693;SDS011;21812;55.536;37.664;2024-03-02T14:06:00;21.10;;;13.70;;
35693;SDS011;21812;55.536;37.664;2024-03-02T14:08:26;18.75;;;12.63;;
35693;SDS011;21812;55.536;37.664;2024-03-02T14:10:52;18.63;;;11.30;;
35693;SDS011;21812;55.536;37.664;2024-03-02T14:13:18;22.05;;;12.98;;
35693;SDS011;21812;55.536;37.664;2024-03-02T14:15:44;18.35;;;10.93;;
35693;SDS011;21812;55.536;37.664;2024-03-02T14:18:11;21.33;;;13.23;;
35693;SDS011;21812;55.536;37.664;2024-03-02T14:20:36;22.20;;;11.73;;